sensor_id;sensor_type;location;lat;lon;timestamp;temperature;humidity
64997;SHT31;51545;51.568;6.998;2022-09-09T00:00:46;15.18;96.00
64997;SHT31;51545;51.568;6.998;2022-09-09T00:03:16;15.06;96.11
64997;SHT31;51545;51.568;6.998;2022-09-09T00:08:15;15.05;96.00
64997;SHT31;51545;51.568;6.998;2022-09-09T00:10:58;14.95;96.16
64997;SHT31;51545;51.568;6.998;2022-09-09T00:16:25;15.20;95.70
64997;SHT31;51545;51.568;6.998;2022-09-09T00:19:12;15.25;95.75
64997;SHT31;51545;51.568;6.998;2022-09-09T00:21:43;15.29;95.76
64997;SHT31;51545;51.568;6.998;2022-09-09T00:27:00;15.25;95.57
64997;SHT31;51545;51.568;6.998;2022-09-09T00:32:18;15.20;95.59
64997;SHT31;51545;51.568;6.998;2022-09-09T00:34:49;15.08;96.02
64997;SHT31;51545;51.568;6.998;2022-09-09T00:37:24;15.20;95.89
64997;SHT31;51545;51.568;6.998;2022-09-09T00:39:51;15.22;96.08
64997;SHT31;51545;51.568;6.998;2022-09-09T00:42:25;15.19;96.06
64997;SHT31;51545;51.568;6.998;2022-09-09T00:47:44;15.08;96.30
64997;SHT31;51545;51.568;6.998;2022-09-09T00:50:15;15.02;96.62
64997;SHT31;51545;51.568;6.998;2022-09-09T00:58:24;15.02;96.75
64997;SHT31;51545;51.568;6.998;2022-09-09T01:01:08;15.01;96.49
64997;SHT31;51545;51.568;6.998;2022-09-09T01:03:45;15.06;96.15
64997;SHT31;51545;51.568;6.998;2022-09-09T01:12:01;15.16;96.66
64997;SHT31;51545;51.568;6.998;2022-09-09T01:14:47;15.20;96.80
64997;SHT31;51545;51.568;6.998;2022-09-09T01:17:21;15.25;96.11
64997;SHT31;51545;51.568;6.998;2022-09-09T01:20:04;15.26;96.30
64997;SHT31;51545;51.568;6.998;2022-09-09T01:22:55;15.33;95.80
64997;SHT31;51545;51.568;6.998;2022-09-09T01:28:34;15.46;96.52
64997;SHT31;51545;51.568;6.998;2022-09-09T01:31:02;15.49;96.62
64997;SHT31;51545;51.568;6.998;2022-09-09T01:33:31;15.49;96.42
64997;SHT31;51545;51.568;6.998;2022-09-09T01:38:32;15.32;96.75
64997;SHT31;51545;51.568;6.998;2022-09-09T01:40:59;15.35;96.78
64997;SHT31;51545;51.568;6.998;2022-09-09T01:43:25;15.22;96.67
64997;SHT31;51545;51.568;6.998;2022-09-09T01:45:52;15.16;96.66
64997;SHT31;51545;51.568;6.998;2022-09-09T01:48:21;15.14;96.63
64997;SHT31;51545;51.568;6.998;2022-09-09T01:50:48;15.12;97.18
64997;SHT31;51545;51.568;6.998;2022-09-09T01:53:14;15.18;97.04
64997;SHT31;51545;51.568;6.998;2022-09-09T01:55:42;15.20;97.11
64997;SHT31;51545;51.568;6.998;2022-09-09T02:01:00;15.14;96.97
64997;SHT31;51545;51.568;6.998;2022-09-09T02:03:31;14.98;97.16
64997;SHT31;51545;51.568;6.998;2022-09-09T02:06:12;14.97;97.26
64997;SHT31;51545;51.568;6.998;2022-09-09T02:08:52;14.99;97.54
64997;SHT31;51545;51.568;6.998;2022-09-09T02:11:24;14.95;97.56
64997;SHT31;51545;51.568;6.998;2022-09-09T02:13:57;14.95;97.75
64997;SHT31;51545;51.568;6.998;2022-09-09T02:16:32;14.98;97.45
64997;SHT31;51545;51.568;6.998;2022-09-09T02:19:14;14.98;97.23
64997;SHT31;51545;51.568;6.998;2022-09-09T02:21:41;15.04;96.76
64997;SHT31;51545;51.568;6.998;2022-09-09T02:24:11;15.22;97.35
64997;SHT31;51545;51.568;6.998;2022-09-09T02:26:41;15.20;97.24
64997;SHT31;51545;51.568;6.998;2022-09-09T02:29:11;15.15;96.84
64997;SHT31;51545;51.568;6.998;2022-09-09T02:31:39;15.25;96.73
64997;SHT31;51545;51.568;6.998;2022-09-09T02:34:09;15.20;96.00
64997;SHT31;51545;51.568;6.998;2022-09-09T02:36:36;15.26;96.08
64997;SHT31;51545;51.568;6.998;2022-09-09T02:39:05;15.31;95.88
64997;SHT31;51545;51.568;6.998;2022-09-09T02:41:34;15.25;95.59
64997;SHT31;51545;51.568;6.998;2022-09-09T02:44:02;15.40;96.36
64997;SHT31;51545;51.568;6.998;2022-09-09T02:49:40;15.38;95.99
64997;SHT31;51545;51.568;6.998;2022-09-09T02:52:26;15.44;96.64
64997;SHT31;51545;51.568;6.998;2022-09-09T02:55:06;15.38;95.70
64997;SHT31;51545;51.568;6.998;2022-09-09T02:57:39;15.38;95.80
64997;SHT31;51545;51.568;6.998;2022-09-09T03:00:07;15.38;95.56
64997;SHT31;51545;51.568;6.998;2022-09-09T03:02:33;15.47;96.27
64997;SHT31;51545;51.568;6.998;2022-09-09T03:04:59;15.40;96.31
64997;SHT31;51545;51.568;6.998;2022-09-09T03:07:24;15.52;96.09
64997;SHT31;51545;51.568;6.998;2022-09-09T03:09:50;15.43;94.92
64997;SHT31;51545;51.568;6.998;2022-09-09T03:12:15;15.47;95.52
64997;SHT31;51545;51.568;6.998;2022-09-09T03:14:41;15.43;95.80
64997;SHT31;51545;51.568;6.998;2022-09-09T03:17:08;15.43;95.86
64997;SHT31;51545;51.568;6.998;2022-09-09T03:19:34;15.38;96.17
64997;SHT31;51545;51.568;6.998;2022-09-09T03:22:00;15.43;96.20
64997;SHT31;51545;51.568;6.998;2022-09-09T03:24:25;15.31;96.71
64997;SHT31;51545;51.568;6.998;2022-09-09T03:26:51;15.26;96.97
64997;SHT31;51545;51.568;6.998;2022-09-09T03:29:17;15.20;95.80
64997;SHT31;51545;51.568;6.998;2022-09-09T03:31:43;15.20;96.68
64997;SHT31;51545;51.568;6.998;2022-09-09T03:34:09;15.20;96.80
64997;SHT31;51545;51.568;6.998;2022-09-09T03:36:35;15.14;96.22
64997;SHT31;51545;51.568;6.998;2022-09-09T03:39:00;15.20;95.96
64997;SHT31;51545;51.568;6.998;2022-09-09T03:41:27;15.23;96.42
64997;SHT31;51545;51.568;6.998;2022-09-09T03:43:53;15.20;95.81
64997;SHT31;51545;51.568;6.998;2022-09-09T03:46:19;15.29;95.92
64997;SHT31;51545;51.568;6.998;2022-09-09T03:48:45;15.32;95.91
64997;SHT31;51545;51.568;6.998;2022-09-09T03:51:12;15.23;95.43
64997;SHT31;51545;51.568;6.998;2022-09-09T03:53:37;15.33;96.38
64997;SHT31;51545;51.568;6.998;2022-09-09T03:56:04;15.35;96.38
64997;SHT31;51545;51.568;6.998;2022-09-09T03:58:32;15.18;96.04
64997;SHT31;51545;51.568;6.998;2022-09-09T04:01:14;15.31;96.57
64997;SHT31;51545;51.568;6.998;2022-09-09T04:03:41;15.32;96.71
64997;SHT31;51545;51.568;6.998;2022-09-09T04:06:08;15.29;96.63
64997;SHT31;51545;51.568;6.998;2022-09-09T04:08:34;15.20;96.40
64997;SHT31;51545;51.568;6.998;2022-09-09T04:11:01;15.12;96.33
64997;SHT31;51545;51.568;6.998;2022-09-09T04:13:30;15.18;95.91
64997;SHT31;51545;51.568;6.998;2022-09-09T04:15:56;15.19;96.04
64997;SHT31;51545;51.568;6.998;2022-09-09T04:18:23;15.18;95.99
64997;SHT31;51545;51.568;6.998;2022-09-09T04:20:50;15.31;95.53
64997;SHT31;51545;51.568;6.998;2022-09-09T04:23:17;15.33;95.21
64997;SHT31;51545;51.568;6.998;2022-09-09T04:25:45;15.31;95.50
64997;SHT31;51545;51.568;6.998;2022-09-09T04:28:12;15.39;95.51
64997;SHT31;51545;51.568;6.998;2022-09-09T04:30:41;15.31;95.60
64997;SHT31;51545;51.568;6.998;2022-09-09T04:33:07;15.35;95.98
64997;SHT31;51545;51.568;6.998;2022-09-09T04:35:32;15.36;96.18
64997;SHT31;51545;51.568;6.998;2022-09-09T04:37:58;15.33;96.53
64997;SHT31;51545;51.568;6.998;2022-09-09T04:40:24;15.26;96.62
64997;SHT31;51545;51.568;6.998;2022-09-09T04:42:50;15.31;95.77
64997;SHT31;51545;51.568;6.998;2022-09-09T04:45:16;15.40;96.08
64997;SHT31;51545;51.568;6.998;2022-09-09T04:47:42;15.39;96.00
64997;SHT31;51545;51.568;6.998;2022-09-09T04:50:07;15.40;96.53
64997;SHT31;51545;51.568;6.998;2022-09-09T04:52:34;15.46;96.16
64997;SHT31;51545;51.568;6.998;2022-09-09T04:55:00;15.40;95.37
64997;SHT31;51545;51.568;6.998;2022-09-09T04:57:26;15.44;95.64
64997;SHT31;51545;51.568;6.998;2022-09-09T04:59:52;15.44;95.55
64997;SHT31;51545;51.568;6.998;2022-09-09T05:02:17;15.54;96.03
64997;SHT31;51545;51.568;6.998;2022-09-09T05:04:42;15.53;96.18
64997;SHT31;51545;51.568;6.998;2022-09-09T05:07:08;15.49;95.32
64997;SHT31;51545;51.568;6.998;2022-09-09T05:09:34;15.60;95.37
64997;SHT31;51545;51.568;6.998;2022-09-09T05:11:59;15.60;95.16
64997;SHT31;51545;51.568;6.998;2022-09-09T05:14:25;15.63;95.44
64997;SHT31;51545;51.568;6.998;2022-09-09T05:16:51;15.59;94.89
64997;SHT31;51545;51.568;6.998;2022-09-09T05:19:17;15.54;94.60
64997;SHT31;51545;51.568;6.998;2022-09-09T05:21:44;15.61;94.54
64997;SHT31;51545;51.568;6.998;2022-09-09T05:24:09;15.70;94.35
64997;SHT31;51545;51.568;6.998;2022-09-09T05:26:35;15.77;94.61
64997;SHT31;51545;51.568;6.998;2022-09-09T05:29:01;15.81;94.21
64997;SHT31;51545;51.568;6.998;2022-09-09T05:31:27;15.78;95.01
64997;SHT31;51545;51.568;6.998;2022-09-09T05:33:55;15.87;94.59
64997;SHT31;51545;51.568;6.998;2022-09-09T05:36:21;15.77;94.53
64997;SHT31;51545;51.568;6.998;2022-09-09T05:38:48;15.81;95.16
64997;SHT31;51545;51.568;6.998;2022-09-09T05:41:15;15.81;94.66
64997;SHT31;51545;51.568;6.998;2022-09-09T05:43:41;15.88;94.93
64997;SHT31;51545;51.568;6.998;2022-09-09T05:46:09;15.92;94.76
64997;SHT31;51545;51.568;6.998;2022-09-09T05:48:37;15.91;93.54
64997;SHT31;51545;51.568;6.998;2022-09-09T05:51:06;15.98;94.12
64997;SHT31;51545;51.568;6.998;2022-09-09T05:53:33;15.99;94.02
64997;SHT31;51545;51.568;6.998;2022-09-09T05:56:03;16.02;94.52
64997;SHT31;51545;51.568;6.998;2022-09-09T05:58:33;16.08;93.35
64997;SHT31;51545;51.568;6.998;2022-09-09T06:01:00;16.05;93.99
64997;SHT31;51545;51.568;6.998;2022-09-09T06:03:27;16.02;93.56
64997;SHT31;51545;51.568;6.998;2022-09-09T06:05:59;15.95;93.88
64997;SHT31;51545;51.568;6.998;2022-09-09T06:08:25;16.11;92.87
64997;SHT31;51545;51.568;6.998;2022-09-09T06:10:52;16.09;92.94
64997;SHT31;51545;51.568;6.998;2022-09-09T06:13:18;16.25;92.87
64997;SHT31;51545;51.568;6.998;2022-09-09T06:15:50;16.37;93.72
64997;SHT31;51545;51.568;6.998;2022-09-09T06:18:17;16.33;92.62
64997;SHT31;51545;51.568;6.998;2022-09-09T06:20:53;16.40;93.23
64997;SHT31;51545;51.568;6.998;2022-09-09T06:23:20;16.49;93.09
64997;SHT31;51545;51.568;6.998;2022-09-09T06:25:45;16.44;92.87
64997;SHT31;51545;51.568;6.998;2022-09-09T06:28:11;16.44;91.51
64997;SHT31;51545;51.568;6.998;2022-09-09T06:30:36;16.56;92.04
64997;SHT31;51545;51.568;6.998;2022-09-09T06:33:02;16.67;91.52
64997;SHT31;51545;51.568;6.998;2022-09-09T06:35:28;16.78;91.82
64997;SHT31;51545;51.568;6.998;2022-09-09T06:37:54;16.72;90.97
64997;SHT31;51545;51.568;6.998;2022-09-09T06:40:19;16.78;90.74
64997;SHT31;51545;51.568;6.998;2022-09-09T06:42:45;16.71;90.73
64997;SHT31;51545;51.568;6.998;2022-09-09T06:45:10;16.80;90.69
64997;SHT31;51545;51.568;6.998;2022-09-09T06:47:36;16.77;90.20
64997;SHT31;51545;51.568;6.998;2022-09-09T06:50:01;16.85;90.27
64997;SHT31;51545;51.568;6.998;2022-09-09T06:52:27;17.01;91.01
64997;SHT31;51545;51.568;6.998;2022-09-09T06:54:53;16.92;91.28
64997;SHT31;51545;51.568;6.998;2022-09-09T06:57:18;17.02;91.58
64997;SHT31;51545;51.568;6.998;2022-09-09T06:59:44;17.14;90.58
64997;SHT31;51545;51.568;6.998;2022-09-09T07:02:09;17.25;88.47
64997;SHT31;51545;51.568;6.998;2022-09-09T07:04:35;17.26;89.46
64997;SHT31;51545;51.568;6.998;2022-09-09T07:07:02;17.20;89.21
64997;SHT31;51545;51.568;6.998;2022-09-09T07:09:27;17.26;90.93
64997;SHT31;51545;51.568;6.998;2022-09-09T07:11:54;17.49;88.85
64997;SHT31;51545;51.568;6.998;2022-09-09T07:14:19;17.39;89.91
64997;SHT31;51545;51.568;6.998;2022-09-09T07:16:46;17.33;88.89
64997;SHT31;51545;51.568;6.998;2022-09-09T07:19:12;17.44;90.01
64997;SHT31;51545;51.568;6.998;2022-09-09T07:21:39;17.58;90.23
64997;SHT31;51545;51.568;6.998;2022-09-09T07:24:07;17.67;89.07
64997;SHT31;51545;51.568;6.998;2022-09-09T07:26:35;17.60;87.62
64997;SHT31;51545;51.568;6.998;2022-09-09T07:29:01;17.57;87.45
64997;SHT31;51545;51.568;6.998;2022-09-09T07:31:28;17.51;87.24
64997;SHT31;51545;51.568;6.998;2022-09-09T07:33:55;17.58;87.29
64997;SHT31;51545;51.568;6.998;2022-09-09T07:36:22;17.87;87.01
64997;SHT31;51545;51.568;6.998;2022-09-09T07:38:51;18.19;85.65
64997;SHT31;51545;51.568;6.998;2022-09-09T07:41:19;18.01;85.02
64997;SHT31;51545;51.568;6.998;2022-09-09T07:43:47;18.01;85.48
64997;SHT31;51545;51.568;6.998;2022-09-09T07:46:15;18.10;84.46
64997;SHT31;51545;51.568;6.998;2022-09-09T07:48:45;18.08;85.15
64997;SHT31;51545;51.568;6.998;2022-09-09T07:51:17;18.02;84.99
64997;SHT31;51545;51.568;6.998;2022-09-09T07:53:48;18.01;83.28
64997;SHT31;51545;51.568;6.998;2022-09-09T07:56:17;17.98;81.82
64997;SHT31;51545;51.568;6.998;2022-09-09T07:58:46;17.95;82.80
64997;SHT31;51545;51.568;6.998;2022-09-09T08:01:17;17.84;82.62
64997;SHT31;51545;51.568;6.998;2022-09-09T08:03:44;17.81;83.04
64997;SHT31;51545;51.568;6.998;2022-09-09T08:06:11;17.74;81.60
64997;SHT31;51545;51.568;6.998;2022-09-09T08:08:38;17.73;81.87
64997;SHT31;51545;51.568;6.998;2022-09-09T08:11:12;17.67;82.50
64997;SHT31;51545;51.568;6.998;2022-09-09T08:13:40;17.82;79.94
64997;SHT31;51545;51.568;6.998;2022-09-09T08:16:07;17.89;80.19
64997;SHT31;51545;51.568;6.998;2022-09-09T08:18:33;17.87;80.28
64997;SHT31;51545;51.568;6.998;2022-09-09T08:21:09;17.81;80.25
64997;SHT31;51545;51.568;6.998;2022-09-09T08:23:36;17.67;79.75
64997;SHT31;51545;51.568;6.998;2022-09-09T08:26:06;17.63;79.65
64997;SHT31;51545;51.568;6.998;2022-09-09T08:28:41;17.61;80.76
64997;SHT31;51545;51.568;6.998;2022-09-09T08:31:15;17.63;80.72
64997;SHT31;51545;51.568;6.998;2022-09-09T08:33:42;17.71;79.90
64997;SHT31;51545;51.568;6.998;2022-09-09T08:36:12;17.66;79.90
64997;SHT31;51545;51.568;6.998;2022-09-09T08:38:42;17.78;79.35
64997;SHT31;51545;51.568;6.998;2022-09-09T08:46:58;17.73;79.49
64997;SHT31;51545;51.568;6.998;2022-09-09T08:49:47;17.81;78.50
64997;SHT31;51545;51.568;6.998;2022-09-09T08:52:30;17.88;78.19
64997;SHT31;51545;51.568;6.998;2022-09-09T08:55:05;18.22;76.85
64997;SHT31;51545;51.568;6.998;2022-09-09T08:57:48;18.56;77.17
64997;SHT31;51545;51.568;6.998;2022-09-09T09:00:17;18.96;74.54
64997;SHT31;51545;51.568;6.998;2022-09-09T09:02:46;18.80;74.56
64997;SHT31;51545;51.568;6.998;2022-09-09T09:08:05;18.84;73.62
64997;SHT31;51545;51.568;6.998;2022-09-09T09:10:48;19.10;73.88
64997;SHT31;51545;51.568;6.998;2022-09-09T09:13:19;19.03;73.42
64997;SHT31;51545;51.568;6.998;2022-09-09T09:15:54;19.30;73.31
64997;SHT31;51545;51.568;6.998;2022-09-09T09:18:23;19.49;72.09
64997;SHT31;51545;51.568;6.998;2022-09-09T09:24:18;19.77;70.65
64997;SHT31;51545;51.568;6.998;2022-09-09T09:26:26;20.23;68.78
64997;SHT31;51545;51.568;6.998;2022-09-09T09:28:56;20.37;69.21
64997;SHT31;51545;51.568;6.998;2022-09-09T09:31:24;20.23;68.62
64997;SHT31;51545;51.568;6.998;2022-09-09T09:33:54;19.79;68.96
64997;SHT31;51545;51.568;6.998;2022-09-09T09:36:32;19.65;69.64
64997;SHT31;51545;51.568;6.998;2022-09-09T09:39:00;19.51;68.78
64997;SHT31;51545;51.568;6.998;2022-09-09T09:43:57;19.79;68.76
64997;SHT31;51545;51.568;6.998;2022-09-09T09:46:24;19.93;68.71
64997;SHT31;51545;51.568;6.998;2022-09-09T09:48:58;19.86;68.45
64997;SHT31;51545;51.568;6.998;2022-09-09T09:51:24;19.98;69.14
64997;SHT31;51545;51.568;6.998;2022-09-09T09:53:51;19.78;68.64
64997;SHT31;51545;51.568;6.998;2022-09-09T09:56:25;20.05;68.86
64997;SHT31;51545;51.568;6.998;2022-09-09T09:58:54;19.75;68.60
64997;SHT31;51545;51.568;6.998;2022-09-09T10:01:27;19.70;69.61
64997;SHT31;51545;51.568;6.998;2022-09-09T10:03:57;19.46;69.94
64997;SHT31;51545;51.568;6.998;2022-09-09T10:06:34;19.50;69.70
64997;SHT31;51545;51.568;6.998;2022-09-09T10:09:18;19.50;70.75
64997;SHT31;51545;51.568;6.998;2022-09-09T10:19:31;19.50;71.16
64997;SHT31;51545;51.568;6.998;2022-09-09T10:29:55;19.54;70.55
64997;SHT31;51545;51.568;6.998;2022-09-09T10:32:31;20.95;66.12
64997;SHT31;51545;51.568;6.998;2022-09-09T10:45:54;21.64;60.79
64997;SHT31;51545;51.568;6.998;2022-09-09T10:48:41;21.26;61.80
64997;SHT31;51545;51.568;6.998;2022-09-09T10:53:58;20.15;64.83
64997;SHT31;51545;51.568;6.998;2022-09-09T10:56:35;20.33;64.00
64997;SHT31;51545;51.568;6.998;2022-09-09T11:04:32;19.85;64.75
64997;SHT31;51545;51.568;6.998;2022-09-09T11:07:05;19.79;65.47
64997;SHT31;51545;51.568;6.998;2022-09-09T11:09:37;19.86;65.16
64997;SHT31;51545;51.568;6.998;2022-09-09T11:12:06;19.92;64.72
64997;SHT31;51545;51.568;6.998;2022-09-09T11:14:49;19.83;65.50
64997;SHT31;51545;51.568;6.998;2022-09-09T11:17:22;19.88;65.53
64997;SHT31;51545;51.568;6.998;2022-09-09T11:19:52;19.89;65.69
64997;SHT31;51545;51.568;6.998;2022-09-09T11:22:22;19.74;65.79
64997;SHT31;51545;51.568;6.998;2022-09-09T11:24:59;19.89;66.73
64997;SHT31;51545;51.568;6.998;2022-09-09T11:27:31;20.12;65.83
64997;SHT31;51545;51.568;6.998;2022-09-09T11:30:15;20.18;65.16
64997;SHT31;51545;51.568;6.998;2022-09-09T11:40:36;20.06;65.92
64997;SHT31;51545;51.568;6.998;2022-09-09T11:43:03;20.19;68.02
64997;SHT31;51545;51.568;6.998;2022-09-09T11:45:34;20.05;65.78
64997;SHT31;51545;51.568;6.998;2022-09-09T11:48:02;20.18;67.34
64997;SHT31;51545;51.568;6.998;2022-09-09T11:50:33;20.05;67.82
64997;SHT31;51545;51.568;6.998;2022-09-09T11:55:38;20.26;66.43
64997;SHT31;51545;51.568;6.998;2022-09-09T11:58:05;20.29;65.69
64997;SHT31;51545;51.568;6.998;2022-09-09T12:00:45;20.41;66.33
64997;SHT31;51545;51.568;6.998;2022-09-09T12:06:24;20.82;63.99
64997;SHT31;51545;51.568;6.998;2022-09-09T12:09:06;20.85;64.79
64997;SHT31;51545;51.568;6.998;2022-09-09T12:11:39;20.53;64.86
64997;SHT31;51545;51.568;6.998;2022-09-09T12:14:04;20.40;66.09
64997;SHT31;51545;51.568;6.998;2022-09-09T12:16:43;20.50;66.25
64997;SHT31;51545;51.568;6.998;2022-09-09T12:24:54;21.90;65.05
64997;SHT31;51545;51.568;6.998;2022-09-09T12:28:15;22.10;64.60
64997;SHT31;51545;51.568;6.998;2022-09-09T12:30:34;21.55;65.53
64997;SHT31;51545;51.568;6.998;2022-09-09T12:33:12;21.71;67.44
64997;SHT31;51545;51.568;6.998;2022-09-09T12:35:41;20.98;66.61
64997;SHT31;51545;51.568;6.998;2022-09-09T12:38:14;20.55;65.72
64997;SHT31;51545;51.568;6.998;2022-09-09T12:40:53;20.44;65.67
64997;SHT31;51545;51.568;6.998;2022-09-09T12:43:21;20.37;66.29
64997;SHT31;51545;51.568;6.998;2022-09-09T12:45:48;20.50;66.60
64997;SHT31;51545;51.568;6.998;2022-09-09T12:48:21;20.44;66.56
64997;SHT31;51545;51.568;6.998;2022-09-09T12:50:50;20.22;67.06
64997;SHT31;51545;51.568;6.998;2022-09-09T12:53:22;20.19;66.72
64997;SHT31;51545;51.568;6.998;2022-09-09T12:56:00;20.29;66.71
64997;SHT31;51545;51.568;6.998;2022-09-09T12:58:34;20.15;68.09
64997;SHT31;51545;51.568;6.998;2022-09-09T13:01:03;19.95;68.53
64997;SHT31;51545;51.568;6.998;2022-09-09T13:03:30;18.06;83.45
64997;SHT31;51545;51.568;6.998;2022-09-09T13:05:58;17.27;87.97
64997;SHT31;51545;51.568;6.998;2022-09-09T13:08:35;16.92;91.08
64997;SHT31;51545;51.568;6.998;2022-09-09T13:11:03;16.83;91.08
64997;SHT31;51545;51.568;6.998;2022-09-09T13:13:35;16.74;90.45
64997;SHT31;51545;51.568;6.998;2022-09-09T13:16:06;17.05;91.47
64997;SHT31;51545;51.568;6.998;2022-09-09T13:18:44;17.08;91.97
64997;SHT31;51545;51.568;6.998;2022-09-09T13:21:11;16.81;90.37
64997;SHT31;51545;51.568;6.998;2022-09-09T13:23:37;16.99;92.13
64997;SHT31;51545;51.568;6.998;2022-09-09T13:26:06;16.61;91.39
64997;SHT31;51545;51.568;6.998;2022-09-09T13:28:47;16.59;92.62
64997;SHT31;51545;51.568;6.998;2022-09-09T13:31:24;16.68;92.88
64997;SHT31;51545;51.568;6.998;2022-09-09T13:33:53;16.71;92.92
64997;SHT31;51545;51.568;6.998;2022-09-09T13:36:27;16.75;90.85
64997;SHT31;51545;51.568;6.998;2022-09-09T13:38:57;17.06;90.08
64997;SHT31;51545;51.568;6.998;2022-09-09T13:41:34;17.40;89.90
64997;SHT31;51545;51.568;6.998;2022-09-09T13:44:02;17.89;90.06
64997;SHT31;51545;51.568;6.998;2022-09-09T13:49:18;17.99;88.70
64997;SHT31;51545;51.568;6.998;2022-09-09T13:51:47;18.25;88.52
64997;SHT31;51545;51.568;6.998;2022-09-09T13:54:16;17.84;88.63
64997;SHT31;51545;51.568;6.998;2022-09-09T13:56:44;17.81;88.55
64997;SHT31;51545;51.568;6.998;2022-09-09T13:59:12;18.64;86.86
64997;SHT31;51545;51.568;6.998;2022-09-09T14:01:39;19.29;84.78
64997;SHT31;51545;51.568;6.998;2022-09-09T14:04:04;18.95;87.28
64997;SHT31;51545;51.568;6.998;2022-09-09T14:06:34;19.33;84.59
64997;SHT31;51545;51.568;6.998;2022-09-09T14:09:03;20.09;81.40
64997;SHT31;51545;51.568;6.998;2022-09-09T14:11:29;21.19;79.89
64997;SHT31;51545;51.568;6.998;2022-09-09T14:13:55;21.92;76.84
64997;SHT31;51545;51.568;6.998;2022-09-09T14:16:20;22.82;73.37
64997;SHT31;51545;51.568;6.998;2022-09-09T14:18:46;23.30;72.00
64997;SHT31;51545;51.568;6.998;2022-09-09T14:21:13;21.24;74.98
64997;SHT31;51545;51.568;6.998;2022-09-09T14:23:39;20.81;77.98
64997;SHT31;51545;51.568;6.998;2022-09-09T14:26:05;21.08;77.86
64997;SHT31;51545;51.568;6.998;2022-09-09T14:28:32;21.03;77.14
64997;SHT31;51545;51.568;6.998;2022-09-09T14:31:02;20.65;78.18
64997;SHT31;51545;51.568;6.998;2022-09-09T14:33:29;20.13;79.26
64997;SHT31;51545;51.568;6.998;2022-09-09T14:35:56;20.33;78.47
64997;SHT31;51545;51.568;6.998;2022-09-09T14:38:22;21.50;78.98
64997;SHT31;51545;51.568;6.998;2022-09-09T14:40:48;21.68;73.90
64997;SHT31;51545;51.568;6.998;2022-09-09T14:43:13;21.32;75.49
64997;SHT31;51545;51.568;6.998;2022-09-09T14:45:39;21.08;75.79
64997;SHT31;51545;51.568;6.998;2022-09-09T14:48:04;19.98;78.68
64997;SHT31;51545;51.568;6.998;2022-09-09T14:50:30;19.98;81.48
64997;SHT31;51545;51.568;6.998;2022-09-09T14:52:55;19.18;82.55
64997;SHT31;51545;51.568;6.998;2022-09-09T14:55:20;18.94;82.18
64997;SHT31;51545;51.568;6.998;2022-09-09T14:57:46;18.53;83.54
64997;SHT31;51545;51.568;6.998;2022-09-09T15:00:11;18.67;85.47
64997;SHT31;51545;51.568;6.998;2022-09-09T15:02:38;18.40;87.37
64997;SHT31;51545;51.568;6.998;2022-09-09T15:05:04;18.10;88.15
64997;SHT31;51545;51.568;6.998;2022-09-09T15:07:30;17.75;91.21
64997;SHT31;51545;51.568;6.998;2022-09-09T15:09:57;17.47;90.99
64997;SHT31;51545;51.568;6.998;2022-09-09T15:12:22;16.97;91.44
64997;SHT31;51545;51.568;6.998;2022-09-09T15:14:48;16.63;93.65
64997;SHT31;51545;51.568;6.998;2022-09-09T15:17:15;16.32;92.98
64997;SHT31;51545;51.568;6.998;2022-09-09T15:19:41;16.12;91.47
64997;SHT31;51545;51.568;6.998;2022-09-09T15:22:07;15.98;91.45
64997;SHT31;51545;51.568;6.998;2022-09-09T15:24:33;15.81;92.04
64997;SHT31;51545;51.568;6.998;2022-09-09T15:26:59;15.87;92.04
64997;SHT31;51545;51.568;6.998;2022-09-09T15:29:25;16.09;92.50
64997;SHT31;51545;51.568;6.998;2022-09-09T15:31:50;15.94;92.40
64997;SHT31;51545;51.568;6.998;2022-09-09T15:34:16;16.16;92.92
64997;SHT31;51545;51.568;6.998;2022-09-09T15:36:43;16.28;92.52
64997;SHT31;51545;51.568;6.998;2022-09-09T15:39:11;16.26;92.67
64997;SHT31;51545;51.568;6.998;2022-09-09T15:41:41;16.24;92.47
64997;SHT31;51545;51.568;6.998;2022-09-09T15:44:07;16.50;93.21
64997;SHT31;51545;51.568;6.998;2022-09-09T15:46:34;16.18;92.94
64997;SHT31;51545;51.568;6.998;2022-09-09T15:51:45;16.50;92.62
64997;SHT31;51545;51.568;6.998;2022-09-09T15:54:13;16.59;93.04
64997;SHT31;51545;51.568;6.998;2022-09-09T15:56:42;16.56;92.44
64997;SHT31;51545;51.568;6.998;2022-09-09T15:59:08;16.81;92.98
64997;SHT31;51545;51.568;6.998;2022-09-09T16:01:34;16.78;92.08
64997;SHT31;51545;51.568;6.998;2022-09-09T16:04:00;17.14;92.48
64997;SHT31;51545;51.568;6.998;2022-09-09T16:06:27;17.29;92.24
64997;SHT31;51545;51.568;6.998;2022-09-09T16:08:54;17.67;90.38
64997;SHT31;51545;51.568;6.998;2022-09-09T16:13:49;17.99;87.92
64997;SHT31;51545;51.568;6.998;2022-09-09T16:16:16;18.27;89.02
64997;SHT31;51545;51.568;6.998;2022-09-09T16:18:48;18.30;86.90
64997;SHT31;51545;51.568;6.998;2022-09-09T16:21:20;18.32;89.25
64997;SHT31;51545;51.568;6.998;2022-09-09T16:23:51;18.32;88.58
64997;SHT31;51545;51.568;6.998;2022-09-09T16:26:18;18.32;87.61
64997;SHT31;51545;51.568;6.998;2022-09-09T16:28:44;18.43;86.69
64997;SHT31;51545;51.568;6.998;2022-09-09T16:31:12;18.29;88.15
64997;SHT31;51545;51.568;6.998;2022-09-09T16:33:39;17.87;88.49
64997;SHT31;51545;51.568;6.998;2022-09-09T16:36:07;17.92;88.72
64997;SHT31;51545;51.568;6.998;2022-09-09T16:38:37;17.67;90.41
64997;SHT31;51545;51.568;6.998;2022-09-09T16:41:04;17.30;91.48
64997;SHT31;51545;51.568;6.998;2022-09-09T16:43:31;17.18;90.58
64997;SHT31;51545;51.568;6.998;2022-09-09T16:46:01;17.18;90.61
64997;SHT31;51545;51.568;6.998;2022-09-09T16:48:30;17.23;90.87
64997;SHT31;51545;51.568;6.998;2022-09-09T16:51:04;17.02;90.92
64997;SHT31;51545;51.568;6.998;2022-09-09T16:53:35;16.99;91.82
64997;SHT31;51545;51.568;6.998;2022-09-09T16:56:07;17.12;91.13
64997;SHT31;51545;51.568;6.998;2022-09-09T16:58:33;17.19;92.78
64997;SHT31;51545;51.568;6.998;2022-09-09T17:01:02;17.06;90.65
64997;SHT31;51545;51.568;6.998;2022-09-09T17:03:29;16.94;90.71
64997;SHT31;51545;51.568;6.998;2022-09-09T17:05:56;17.08;91.03
64997;SHT31;51545;51.568;6.998;2022-09-09T17:08:23;17.22;91.88
64997;SHT31;51545;51.568;6.998;2022-09-09T17:10:49;16.99;92.51
64997;SHT31;51545;51.568;6.998;2022-09-09T17:13:15;16.99;92.54
64997;SHT31;51545;51.568;6.998;2022-09-09T17:15:42;17.11;92.80
64997;SHT31;51545;51.568;6.998;2022-09-09T17:18:11;16.94;93.02
64997;SHT31;51545;51.568;6.998;2022-09-09T17:20:40;17.05;93.31
64997;SHT31;51545;51.568;6.998;2022-09-09T17:23:07;16.87;92.40
64997;SHT31;51545;51.568;6.998;2022-09-09T17:25:34;16.94;93.26
64997;SHT31;51545;51.568;6.998;2022-09-09T17:28:00;16.77;92.83
64997;SHT31;51545;51.568;6.998;2022-09-09T17:30:28;16.74;92.97
64997;SHT31;51545;51.568;6.998;2022-09-09T17:32:56;16.75;93.41
64997;SHT31;51545;51.568;6.998;2022-09-09T17:35:22;16.87;92.95